sensor_id;sensor_type;location;lat;lon;timestamp;P1;durP1;ratioP1;P2;durP2;ratioP2
77152;SDS011;66124;51.146;17.072;2023-09-19T00:01:56;3.60;;;1.70;;
77152;SDS011;66124;51.146;17.072;2023-09-19T00:04:25;3.80;;;2.40;;
77152;SDS011;66124;51.146;17.072;2023-09-19T00:06:55;3.40;;;1.50;;
77152;SDS011;66124;51.146;17.072;2023-09-19T00:09:24;2.90;;;1.60;;
77152;SDS011;66124;51.146;17.072;2023-09-19T00:11:54;3.40;;;1.70;;
77152;SDS011;66124;51.146;17.072;2023-09-19T00:24:31;3.50;;;2.00;;
77152;SDS011;66124;51.146;17.072;2023-09-19T00:27:01;3.10;;;1.60;;
77152;SDS011;66124;51.146;17.072;2023-09-19T00:29:30;2.90;;;1.30;;
77152;SDS011;66124;51.146;17.072;2023-09-19T00:32:00;2.40;;;1.30;;
77152;SDS011;66124;51.146;17.072;2023-09-19T00:34:29;2.80;;;1.20;;
77152;SDS011;66124;51.146;17.072;2023-09-19T00:37:00;2.40;;;1.80;;
77152;SDS011;66124;51.146;17.072;2023-09-19T00:39:29;3.20;;;1.70;;
77152;SDS011;66124;51.146;17.072;2023-09-19T00:41:58;2.00;;;1.40;;
77152;SDS011;66124;51.146;17.072;2023-09-19T00:44:28;2.30;;;1.60;;
77152;SDS011;66124;51.146;17.072;2023-09-19T00:46:57;2.90;;;1.60;;
77152;SDS011;66124;51.146;17.072;2023-09-19T00:49:26;3.40;;;1.40;;
77152;SDS011;66124;51.146;17.072;2023-09-19T00:51:56;4.00;;;1.80;;
77152;SDS011;66124;51.146;17.072;2023-09-19T00:54:25;1.70;;;1.30;;
77152;SDS011;66124;51.146;17.072;2023-09-19T00:56:55;3.30;;;1.50;;
77152;SDS011;66124;51.146;17.072;2023-09-19T00:59:25;2.30;;;1.50;;
77152;SDS011;66124;51.146;17.072;2023-09-19T01:01:54;2.80;;;1.40;;
77152;SDS011;66124;51.146;17.072;2023-09-19T01:04:25;2.60;;;1.40;;
77152;SDS011;66124;51.146;17.072;2023-09-19T01:06:54;3.00;;;1.50;;
77152;SDS011;66124;51.146;17.072;2023-09-19T01:09:24;2.50;;;1.20;;
77152;SDS011;66124;51.146;17.072;2023-09-19T01:11:55;2.80;;;1.40;;
77152;SDS011;66124;51.146;17.072;2023-09-19T01:14:31;2.00;;;1.20;;
77152;SDS011;66124;51.146;17.072;2023-09-19T01:17:09;4.70;;;1.40;;
77152;SDS011;66124;51.146;17.072;2023-09-19T01:22:48;2.10;;;1.30;;
77152;SDS011;66124;51.146;17.072;2023-09-19T01:31:45;1.90;;;1.40;;
77152;SDS011;66124;51.146;17.072;2023-09-19T01:34:14;2.30;;;1.10;;
77152;SDS011;66124;51.146;17.072;2023-09-19T01:36:44;3.00;;;1.30;;
77152;SDS011;66124;51.146;17.072;2023-09-19T01:39:13;1.60;;;1.40;;
77152;SDS011;66124;51.146;17.072;2023-09-19T01:41:50;2.30;;;1.30;;
77152;SDS011;66124;51.146;17.072;2023-09-19T01:44:29;3.20;;;1.30;;
77152;SDS011;66124;51.146;17.072;2023-09-19T01:47:19;3.40;;;1.40;;
77152;SDS011;66124;51.146;17.072;2023-09-19T01:49:59;2.30;;;1.20;;
77152;SDS011;66124;51.146;17.072;2023-09-19T01:55:16;3.10;;;1.40;;
77152;SDS011;66124;51.146;17.072;2023-09-19T01:57:51;4.20;;;1.60;;
77152;SDS011;66124;51.146;17.072;2023-09-19T02:00:29;2.40;;;1.20;;
77152;SDS011;66124;51.146;17.072;2023-09-19T02:03:00;2.80;;;1.30;;
77152;SDS011;66124;51.146;17.072;2023-09-19T02:05:30;2.80;;;1.50;;
77152;SDS011;66124;51.146;17.072;2023-09-19T02:08:00;2.30;;;1.40;;
77152;SDS011;66124;51.146;17.072;2023-09-19T02:10:29;2.40;;;1.50;;
77152;SDS011;66124;51.146;17.072;2023-09-19T02:12:59;2.60;;;1.10;;
77152;SDS011;66124;51.146;17.072;2023-09-19T02:15:28;2.60;;;1.30;;
77152;SDS011;66124;51.146;17.072;2023-09-19T02:17:58;2.10;;;1.30;;
77152;SDS011;66124;51.146;17.072;2023-09-19T02:20:27;2.30;;;1.30;;
77152;SDS011;66124;51.146;17.072;2023-09-19T02:22:57;3.10;;;1.40;;
77152;SDS011;66124;51.146;17.072;2023-09-19T02:25:26;3.20;;;1.10;;
77152;SDS011;66124;51.146;17.072;2023-09-19T02:27:55;3.40;;;1.40;;
77152;SDS011;66124;51.146;17.072;2023-09-19T02:30:25;2.30;;;1.20;;
77152;SDS011;66124;51.146;17.072;2023-09-19T02:43:16;3.40;;;1.20;;
77152;SDS011;66124;51.146;17.072;2023-09-19T02:45:46;4.20;;;1.30;;
77152;SDS011;66124;51.146;17.072;2023-09-19T02:48:15;2.00;;;1.10;;
77152;SDS011;66124;51.146;17.072;2023-09-19T02:50:45;3.10;;;1.40;;
77152;SDS011;66124;51.146;17.072;2023-09-19T02:53:17;2.10;;;1.30;;
77152;SDS011;66124;51.146;17.072;2023-09-19T02:55:47;1.50;;;1.10;;
77152;SDS011;66124;51.146;17.072;2023-09-19T02:58:17;2.10;;;1.40;;
77152;SDS011;66124;51.146;17.072;2023-09-19T03:00:46;3.50;;;1.50;;
77152;SDS011;66124;51.146;17.072;2023-09-19T03:03:16;2.00;;;1.30;;
77152;SDS011;66124;51.146;17.072;2023-09-19T03:05:46;3.10;;;1.40;;
77152;SDS011;66124;51.146;17.072;2023-09-19T03:08:15;2.70;;;1.40;;
77152;SDS011;66124;51.146;17.072;2023-09-19T03:10:47;2.70;;;1.30;;
77152;SDS011;66124;51.146;17.072;2023-09-19T03:13:16;2.30;;;1.60;;
77152;SDS011;66124;51.146;17.072;2023-09-19T03:15:46;3.80;;;1.50;;
77152;SDS011;66124;51.146;17.072;2023-09-19T03:18:15;3.10;;;1.60;;
77152;SDS011;66124;51.146;17.072;2023-09-19T03:20:44;2.80;;;1.60;;
77152;SDS011;66124;51.146;17.072;2023-09-19T03:23:22;3.10;;;1.60;;
77152;SDS011;66124;51.146;17.072;2023-09-19T03:25:52;3.70;;;2.10;;
77152;SDS011;66124;51.146;17.072;2023-09-19T03:28:21;2.60;;;1.30;;
77152;SDS011;66124;51.146;17.072;2023-09-19T03:31:01;2.90;;;1.50;;
77152;SDS011;66124;51.146;17.072;2023-09-19T03:33:31;3.40;;;1.50;;
77152;SDS011;66124;51.146;17.072;2023-09-19T03:36:01;1.90;;;1.20;;
77152;SDS011;66124;51.146;17.072;2023-09-19T03:38:32;4.00;;;1.50;;
77152;SDS011;66124;51.146;17.072;2023-09-19T03:41:01;3.90;;;1.50;;
77152;SDS011;66124;51.146;17.072;2023-09-19T03:43:31;3.60;;;1.60;;
77152;SDS011;66124;51.146;17.072;2023-09-19T03:46:02;1.90;;;1.40;;
77152;SDS011;66124;51.146;17.072;2023-09-19T03:48:32;2.10;;;1.40;;
77152;SDS011;66124;51.146;17.072;2023-09-19T03:51:01;3.20;;;1.90;;
77152;SDS011;66124;51.146;17.072;2023-09-19T03:53:30;4.00;;;1.70;;
77152;SDS011;66124;51.146;17.072;2023-09-19T03:57:16;2.20;;;1.50;;
77152;SDS011;66124;51.146;17.072;2023-09-19T03:59:45;5.10;;;1.70;;
77152;SDS011;66124;51.146;17.072;2023-09-19T04:02:15;3.50;;;1.70;;
77152;SDS011;66124;51.146;17.072;2023-09-19T04:04:44;2.20;;;1.70;;
77152;SDS011;66124;51.146;17.072;2023-09-19T04:07:13;4.80;;;1.80;;
77152;SDS011;66124;51.146;17.072;2023-09-19T04:09:45;3.50;;;2.00;;
77152;SDS011;66124;51.146;17.072;2023-09-19T04:12:14;4.00;;;2.30;;
77152;SDS011;66124;51.146;17.072;2023-09-19T04:14:44;3.80;;;1.70;;
77152;SDS011;66124;51.146;17.072;2023-09-19T04:17:13;3.40;;;1.70;;
77152;SDS011;66124;51.146;17.072;2023-09-19T04:19:44;4.50;;;2.00;;
77152;SDS011;66124;51.146;17.072;2023-09-19T04:22:13;3.60;;;2.20;;
77152;SDS011;66124;51.146;17.072;2023-09-19T04:24:42;3.50;;;1.80;;
77152;SDS011;66124;51.146;17.072;2023-09-19T04:27:12;5.00;;;2.10;;
77152;SDS011;66124;51.146;17.072;2023-09-19T04:29:41;3.20;;;2.30;;
77152;SDS011;66124;51.146;17.072;2023-09-19T04:32:11;3.90;;;2.40;;
77152;SDS011;66124;51.146;17.072;2023-09-19T04:34:40;3.80;;;2.20;;
77152;SDS011;66124;51.146;17.072;2023-09-19T04:37:09;3.40;;;2.00;;
77152;SDS011;66124;51.146;17.072;2023-09-19T04:39:38;4.50;;;2.40;;
77152;SDS011;66124;51.146;17.072;2023-09-19T04:42:08;4.20;;;2.20;;
77152;SDS011;66124;51.146;17.072;2023-09-19T04:44:37;5.50;;;2.30;;
77152;SDS011;66124;51.146;17.072;2023-09-19T04:47:06;3.00;;;1.60;;
77152;SDS011;66124;51.146;17.072;2023-09-19T04:49:36;3.40;;;1.60;;
77152;SDS011;66124;51.146;17.072;2023-09-19T04:54:35;4.00;;;2.60;;
77152;SDS011;66124;51.146;17.072;2023-09-19T04:57:05;3.80;;;1.90;;
77152;SDS011;66124;51.146;17.072;2023-09-19T04:59:34;4.20;;;1.80;;
77152;SDS011;66124;51.146;17.072;2023-09-19T05:02:04;3.60;;;1.60;;
77152;SDS011;66124;51.146;17.072;2023-09-19T05:04:33;4.60;;;1.90;;
77152;SDS011;66124;51.146;17.072;2023-09-19T05:07:03;3.00;;;1.60;;
77152;SDS011;66124;51.146;17.072;2023-09-19T05:23:00;4.20;;;1.60;;
77152;SDS011;66124;51.146;17.072;2023-09-19T05:25:28;2.80;;;1.60;;
77152;SDS011;66124;51.146;17.072;2023-09-19T05:27:58;3.40;;;1.80;;
77152;SDS011;66124;51.146;17.072;2023-09-19T05:30:25;2.20;;;1.30;;
77152;SDS011;66124;51.146;17.072;2023-09-19T05:32:53;3.40;;;1.40;;
77152;SDS011;66124;51.146;17.072;2023-09-19T05:35:21;2.90;;;1.40;;
77152;SDS011;66124;51.146;17.072;2023-09-19T05:37:49;4.50;;;1.80;;
77152;SDS011;66124;51.146;17.072;2023-09-19T05:40:17;2.90;;;1.40;;
77152;SDS011;66124;51.146;17.072;2023-09-19T05:53:58;3.20;;;1.70;;
77152;SDS011;66124;51.146;17.072;2023-09-19T05:56:27;3.20;;;1.80;;
77152;SDS011;66124;51.146;17.072;2023-09-19T05:58:57;4.60;;;1.90;;
77152;SDS011;66124;51.146;17.072;2023-09-19T06:01:26;8.30;;;2.50;;
77152;SDS011;66124;51.146;17.072;2023-09-19T06:03:55;4.00;;;1.90;;
77152;SDS011;66124;51.146;17.072;2023-09-19T06:06:29;2.90;;;1.90;;
77152;SDS011;66124;51.146;17.072;2023-09-19T06:08:58;2.70;;;1.80;;
77152;SDS011;66124;51.146;17.072;2023-09-19T06:11:28;2.40;;;1.50;;
77152;SDS011;66124;51.146;17.072;2023-09-19T06:13:57;4.30;;;1.60;;
77152;SDS011;66124;51.146;17.072;2023-09-19T06:16:26;3.60;;;1.80;;
77152;SDS011;66124;51.146;17.072;2023-09-19T06:18:56;4.00;;;1.80;;
77152;SDS011;66124;51.146;17.072;2023-09-19T06:21:25;4.00;;;1.90;;
77152;SDS011;66124;51.146;17.072;2023-09-19T06:23:55;2.70;;;1.90;;
77152;SDS011;66124;51.146;17.072;2023-09-19T06:26:25;3.50;;;1.80;;
77152;SDS011;66124;51.146;17.072;2023-09-19T06:28:54;3.50;;;1.60;;
77152;SDS011;66124;51.146;17.072;2023-09-19T06:31:24;5.20;;;2.20;;
77152;SDS011;66124;51.146;17.072;2023-09-19T06:33:53;2.60;;;1.50;;
77152;SDS011;66124;51.146;17.072;2023-09-19T06:36:22;2.50;;;1.40;;
77152;SDS011;66124;51.146;17.072;2023-09-19T06:38:52;2.50;;;1.50;;
77152;SDS011;66124;51.146;17.072;2023-09-19T06:41:21;2.60;;;1.70;;
77152;SDS011;66124;51.146;17.072;2023-09-19T06:43:50;3.80;;;1.20;;
77152;SDS011;66124;51.146;17.072;2023-09-19T06:46:20;2.00;;;1.30;;
77152;SDS011;66124;51.146;17.072;2023-09-19T06:48:49;1.90;;;1.60;;
77152;SDS011;66124;51.146;17.072;2023-09-19T06:51:19;2.30;;;1.80;;
77152;SDS011;66124;51.146;17.072;2023-09-19T06:53:48;3.00;;;1.90;;
77152;SDS011;66124;51.146;17.072;2023-09-19T06:56:18;2.80;;;1.60;;
77152;SDS011;66124;51.146;17.072;2023-09-19T06:58:47;4.00;;;1.40;;
77152;SDS011;66124;51.146;17.072;2023-09-19T07:01:17;3.40;;;1.50;;
77152;SDS011;66124;51.146;17.072;2023-09-19T07:16:15;3.90;;;1.60;;
77152;SDS011;66124;51.146;17.072;2023-09-19T07:18:45;3.60;;;1.70;;
77152;SDS011;66124;51.146;17.072;2023-09-19T07:21:14;4.10;;;1.70;;
77152;SDS011;66124;51.146;17.072;2023-09-19T07:23:43;3.80;;;2.10;;
77152;SDS011;66124;51.146;17.072;2023-09-19T07:26:13;2.90;;;2.30;;
77152;SDS011;66124;51.146;17.072;2023-09-19T07:28:44;3.50;;;2.10;;
77152;SDS011;66124;51.146;17.072;2023-09-19T07:31:13;4.20;;;2.00;;
77152;SDS011;66124;51.146;17.072;2023-09-19T07:33:42;4.20;;;2.70;;
77152;SDS011;66124;51.146;17.072;2023-09-19T07:36:12;3.60;;;2.10;;
77152;SDS011;66124;51.146;17.072;2023-09-19T07:38:41;4.90;;;1.90;;
77152;SDS011;66124;51.146;17.072;2023-09-19T07:41:11;3.20;;;1.20;;
77152;SDS011;66124;51.146;17.072;2023-09-19T07:43:40;2.20;;;1.40;;
77152;SDS011;66124;51.146;17.072;2023-09-19T07:46:09;3.00;;;1.40;;
77152;SDS011;66124;51.146;17.072;2023-09-19T07:48:38;3.30;;;1.30;;
77152;SDS011;66124;51.146;17.072;2023-09-19T07:51:08;2.10;;;1.60;;
77152;SDS011;66124;51.146;17.072;2023-09-19T07:53:38;3.80;;;1.50;;
77152;SDS011;66124;51.146;17.072;2023-09-19T07:56:08;2.50;;;1.60;;
77152;SDS011;66124;51.146;17.072;2023-09-19T07:58:40;2.80;;;1.60;;
77152;SDS011;66124;51.146;17.072;2023-09-19T08:03:38;1.90;;;1.40;;
77152;SDS011;66124;51.146;17.072;2023-09-19T08:06:07;2.20;;;1.20;;
77152;SDS011;66124;51.146;17.072;2023-09-19T08:08:37;2.50;;;1.20;;
77152;SDS011;66124;51.146;17.072;2023-09-19T08:11:06;2.90;;;1.50;;
77152;SDS011;66124;51.146;17.072;2023-09-19T08:13:36;3.00;;;1.60;;
77152;SDS011;66124;51.146;17.072;2023-09-19T08:16:05;2.00;;;1.50;;
77152;SDS011;66124;51.146;17.072;2023-09-19T08:18:35;3.00;;;1.80;;
77152;SDS011;66124;51.146;17.072;2023-09-19T08:21:04;3.50;;;1.40;;
77152;SDS011;66124;51.146;17.072;2023-09-19T08:23:34;1.90;;;1.50;;
77152;SDS011;66124;51.146;17.072;2023-09-19T08:26:03;2.70;;;1.50;;
77152;SDS011;66124;51.146;17.072;2023-09-19T08:39:15;2.80;;;1.50;;
77152;SDS011;66124;51.146;17.072;2023-09-19T08:41:44;2.40;;;1.40;;
77152;SDS011;66124;51.146;17.072;2023-09-19T08:44:14;2.10;;;1.30;;
77152;SDS011;66124;51.146;17.072;2023-09-19T08:46:43;1.60;;;1.50;;
77152;SDS011;66124;51.146;17.072;2023-09-19T08:49:16;1.70;;;1.60;;
77152;SDS011;66124;51.146;17.072;2023-09-19T08:51:57;2.50;;;1.60;;
77152;SDS011;66124;51.146;17.072;2023-09-19T08:54:35;1.60;;;1.30;;
77152;SDS011;66124;51.146;17.072;2023-09-19T08:57:06;2.30;;;1.20;;
77152;SDS011;66124;51.146;17.072;2023-09-19T08:59:36;1.80;;;1.20;;
77152;SDS011;66124;51.146;17.072;2023-09-19T09:02:09;2.00;;;1.40;;
77152;SDS011;66124;51.146;17.072;2023-09-19T09:04:41;1.50;;;1.20;;
77152;SDS011;66124;51.146;17.072;2023-09-19T09:07:13;1.70;;;1.40;;
77152;SDS011;66124;51.146;17.072;2023-09-19T09:09:44;1.70;;;1.30;;
77152;SDS011;66124;51.146;17.072;2023-09-19T09:12:14;1.70;;;1.30;;
77152;SDS011;66124;51.146;17.072;2023-09-19T09:14:44;2.50;;;1.40;;
77152;SDS011;66124;51.146;17.072;2023-09-19T09:17:14;1.30;;;1.20;;
77152;SDS011;66124;51.146;17.072;2023-09-19T09:19:44;3.30;;;1.40;;
77152;SDS011;66124;51.146;17.072;2023-09-19T09:22:13;1.50;;;1.30;;
77152;SDS011;66124;51.146;17.072;2023-09-19T09:24:52;3.20;;;1.10;;
77152;SDS011;66124;51.146;17.072;2023-09-19T09:27:22;2.30;;;1.40;;
77152;SDS011;66124;51.146;17.072;2023-09-19T09:29:52;1.50;;;1.20;;
77152;SDS011;66124;51.146;17.072;2023-09-19T09:32:22;1.60;;;1.20;;
77152;SDS011;66124;51.146;17.072;2023-09-19T09:34:53;1.90;;;1.30;;
77152;SDS011;66124;51.146;17.072;2023-09-19T09:37:24;1.70;;;1.30;;
77152;SDS011;66124;51.146;17.072;2023-09-19T09:39:54;1.70;;;1.10;;
77152;SDS011;66124;51.146;17.072;2023-09-19T09:42:31;2.10;;;1.30;;
77152;SDS011;66124;51.146;17.072;2023-09-19T09:45:13;2.70;;;1.80;;
77152;SDS011;66124;51.146;17.072;2023-09-19T09:47:45;2.00;;;1.20;;
77152;SDS011;66124;51.146;17.072;2023-09-19T09:52:15;2.40;;;1.40;;
77152;SDS011;66124;51.146;17.072;2023-09-19T09:57:42;1.60;;;1.00;;
77152;SDS011;66124;51.146;17.072;2023-09-19T10:00:12;1.80;;;1.30;;
77152;SDS011;66124;51.146;17.072;2023-09-19T10:02:42;2.20;;;1.40;;
77152;SDS011;66124;51.146;17.072;2023-09-19T10:05:13;1.40;;;1.30;;
77152;SDS011;66124;51.146;17.072;2023-09-19T10:07:43;0.90;;;0.80;;
77152;SDS011;66124;51.146;17.072;2023-09-19T10:10:13;1.90;;;1.30;;
77152;SDS011;66124;51.146;17.072;2023-09-19T10:12:46;3.00;;;1.60;;
77152;SDS011;66124;51.146;17.072;2023-09-19T10:15:16;1.40;;;1.10;;
77152;SDS011;66124;51.146;17.072;2023-09-19T10:17:47;2.20;;;1.20;;
77152;SDS011;66124;51.146;17.072;2023-09-19T10:20:17;2.70;;;1.10;;
77152;SDS011;66124;51.146;17.072;2023-09-19T10:22:47;1.90;;;1.00;;
77152;SDS011;66124;51.146;17.072;2023-09-19T10:25:18;2.10;;;1.00;;
77152;SDS011;66124;51.146;17.072;2023-09-19T10:27:48;2.60;;;1.20;;
77152;SDS011;66124;51.146;17.072;2023-09-19T10:30:18;2.80;;;1.40;;
77152;SDS011;66124;51.146;17.072;2023-09-19T10:32:48;1.30;;;1.00;;
77152;SDS011;66124;51.146;17.072;2023-09-19T10:35:27;1.50;;;0.90;;
77152;SDS011;66124;51.146;17.072;2023-09-19T10:37:59;1.80;;;1.00;;
77152;SDS011;66124;51.146;17.072;2023-09-19T10:40:29;1.80;;;1.10;;
77152;SDS011;66124;51.146;17.072;2023-09-19T10:43:02;1.50;;;1.20;;
77152;SDS011;66124;51.146;17.072;2023-09-19T10:45:33;2.60;;;1.30;;
77152;SDS011;66124;51.146;17.072;2023-09-19T10:50:33;1.50;;;1.00;;
77152;SDS011;66124;51.146;17.072;2023-09-19T10:53:11;1.40;;;1.00;;
77152;SDS011;66124;51.146;17.072;2023-09-19T10:55:48;2.40;;;1.10;;
77152;SDS011;66124;51.146;17.072;2023-09-19T10:58:26;2.20;;;1.00;;
77152;SDS011;66124;51.146;17.072;2023-09-19T11:00:57;0.90;;;0.70;;
77152;SDS011;66124;51.146;17.072;2023-09-19T11:03:26;2.10;;;1.10;;
77152;SDS011;66124;51.146;17.072;2023-09-19T11:06:03;2.70;;;1.10;;
77152;SDS011;66124;51.146;17.072;2023-09-19T11:23:18;1.70;;;0.80;;
77152;SDS011;66124;51.146;17.072;2023-09-19T11:25:51;1.70;;;0.90;;
77152;SDS011;66124;51.146;17.072;2023-09-19T11:28:36;1.80;;;0.90;;
77152;SDS011;66124;51.146;17.072;2023-09-19T11:40:32;1.40;;;0.70;;
77152;SDS011;66124;51.146;17.072;2023-09-19T11:43:01;1.40;;;0.80;;
77152;SDS011;66124;51.146;17.072;2023-09-19T11:46:07;1.90;;;1.10;;
77152;SDS011;66124;51.146;17.072;2023-09-19T11:48:38;1.90;;;0.80;;
77152;SDS011;66124;51.146;17.072;2023-09-19T11:51:15;1.30;;;1.00;;
77152;SDS011;66124;51.146;17.072;2023-09-19T11:53:46;2.00;;;1.00;;
77152;SDS011;66124;51.146;17.072;2023-09-19T11:56:16;1.60;;;0.80;;
77152;SDS011;66124;51.146;17.072;2023-09-19T11:58:47;1.50;;;0.90;;
77152;SDS011;66124;51.146;17.072;2023-09-19T12:01:20;1.20;;;1.00;;
77152;SDS011;66124;51.146;17.072;2023-09-19T12:03:54;1.30;;;0.80;;
77152;SDS011;66124;51.146;17.072;2023-09-19T12:06:26;1.10;;;0.70;;
77152;SDS011;66124;51.146;17.072;2023-09-19T12:08:56;1.80;;;0.80;;
77152;SDS011;66124;51.146;17.072;2023-09-19T12:11:29;0.70;;;0.60;;
77152;SDS011;66124;51.146;17.072;2023-09-19T12:13:59;1.50;;;0.90;;
77152;SDS011;66124;51.146;17.072;2023-09-19T12:16:29;1.30;;;0.60;;
77152;SDS011;66124;51.146;17.072;2023-09-19T12:18:58;1.80;;;0.70;;
77152;SDS011;66124;51.146;17.072;2023-09-19T12:21:54;0.70;;;0.70;;
77152;SDS011;66124;51.146;17.072;2023-09-19T12:24:24;1.80;;;0.70;;
77152;SDS011;66124;51.146;17.072;2023-09-19T12:26:54;1.50;;;0.80;;
77152;SDS011;66124;51.146;17.072;2023-09-19T12:30:46;1.20;;;0.80;;
77152;SDS011;66124;51.146;17.072;2023-09-19T12:33:17;1.50;;;0.70;;
77152;SDS011;66124;51.146;17.072;2023-09-19T12:35:47;1.90;;;0.70;;
77152;SDS011;66124;51.146;17.072;2023-09-19T12:38:24;1.30;;;0.90;;
77152;SDS011;66124;51.146;17.072;2023-09-19T12:40:54;0.80;;;0.80;;
77152;SDS011;66124;51.146;17.072;2023-09-19T12:43:24;2.30;;;1.00;;
77152;SDS011;66124;51.146;17.072;2023-09-19T12:45:53;1.80;;;0.80;;
77152;SDS011;66124;51.146;17.072;2023-09-19T12:48:23;0.80;;;0.60;;
77152;SDS011;66124;51.146;17.072;2023-09-19T12:51:03;1.80;;;0.90;;
77152;SDS011;66124;51.146;17.072;2023-09-19T12:53:34;1.20;;;0.90;;
77152;SDS011;66124;51.146;17.072;2023-09-19T12:56:04;1.50;;;1.00;;
77152;SDS011;66124;51.146;17.072;2023-09-19T12:58:33;1.40;;;0.80;;
77152;SDS011;66124;51.146;17.072;2023-09-19T13:01:15;0.70;;;0.70;;
77152;SDS011;66124;51.146;17.072;2023-09-19T13:03:45;2.10;;;0.80;;
77152;SDS011;66124;51.146;17.072;2023-09-19T13:06:37;1.70;;;1.00;;
77152;SDS011;66124;51.146;17.072;2023-09-19T13:09:10;3.50;;;0.90;;
77152;SDS011;66124;51.146;17.072;2023-09-19T13:11:40;1.00;;;0.60;;
77152;SDS011;66124;51.146;17.072;2023-09-19T13:14:20;1.40;;;1.00;;
77152;SDS011;66124;51.146;17.072;2023-09-19T13:16:54;1.00;;;0.70;;
77152;SDS011;66124;51.146;17.072;2023-09-19T13:19:38;1.70;;;0.80;;
77152;SDS011;66124;51.146;17.072;2023-09-19T13:25:08;3.20;;;0.90;;
77152;SDS011;66124;51.146;17.072;2023-09-19T13:27:41;1.20;;;0.90;;
77152;SDS011;66124;51.146;17.072;2023-09-19T13:30:12;1.60;;;0.90;;
77152;SDS011;66124;51.146;17.072;2023-09-19T13:32:42;1.70;;;0.80;;
77152;SDS011;66124;51.146;17.072;2023-09-19T13:35:12;1.50;;;0.80;;
77152;SDS011;66124;51.146;17.072;2023-09-19T13:37:42;0.90;;;0.80;;
77152;SDS011;66124;51.146;17.072;2023-09-19T13:47:14;0.90;;;0.70;;
77152;SDS011;66124;51.146;17.072;2023-09-19T13:49:43;1.40;;;0.90;;
77152;SDS011;66124;51.146;17.072;2023-09-19T13:52:13;1.00;;;0.60;;
77152;SDS011;66124;51.146;17.072;2023-09-19T13:54:42;0.90;;;0.70;;
77152;SDS011;66124;51.146;17.072;2023-09-19T13:57:11;1.20;;;0.80;;
77152;SDS011;66124;51.146;17.072;2023-09-19T13:59:42;1.50;;;0.80;;
77152;SDS011;66124;51.146;17.072;2023-09-19T14:02:12;1.60;;;0.80;;
77152;SDS011;66124;51.146;17.072;2023-09-19T14:04:41;1.00;;;0.80;;
77152;SDS011;66124;51.146;17.072;2023-09-19T14:07:11;1.30;;;0.80;;
77152;SDS011;66124;51.146;17.072;2023-09-19T14:09:40;1.20;;;0.90;;
77152;SDS011;66124;51.146;17.072;2023-09-19T14:12:10;1.80;;;1.00;;
77152;SDS011;66124;51.146;17.072;2023-09-19T14:14:39;1.00;;;0.80;;
77152;SDS011;66124;51.146;17.072;2023-09-19T14:17:09;1.40;;;0.90;;
77152;SDS011;66124;51.146;17.072;2023-09-19T14:19:38;1.80;;;1.00;;
77152;SDS011;66124;51.146;17.072;2023-09-19T14:22:09;0.80;;;0.80;;
77152;SDS011;66124;51.146;17.072;2023-09-19T14:24:39;1.80;;;0.90;;
77152;SDS011;66124;51.146;17.072;2023-09-19T14:27:09;1.20;;;1.00;;
77152;SDS011;66124;51.146;17.072;2023-09-19T14:29:38;1.50;;;0.80;;
77152;SDS011;66124;51.146;17.072;2023-09-19T14:32:07;1.60;;;1.00;;
77152;SDS011;66124;51.146;17.072;2023-09-19T14:34:37;2.20;;;1.20;;
77152;SDS011;66124;51.146;17.072;2023-09-19T14:37:07;1.80;;;1.10;;
77152;SDS011;66124;51.146;17.072;2023-09-19T14:39:36;1.40;;;0.90;;
77152;SDS011;66124;51.146;17.072;2023-09-19T14:42:06;1.40;;;0.90;;
77152;SDS011;66124;51.146;17.072;2023-09-19T14:44:35;1.30;;;0.90;;
77152;SDS011;66124;51.146;17.072;2023-09-19T14:47:05;1.00;;;0.70;;
77152;SDS011;66124;51.146;17.072;2023-09-19T14:49:35;1.90;;;0.90;;
77152;SDS011;66124;51.146;17.072;2023-09-19T14:52:06;1.00;;;0.80;;
77152;SDS011;66124;51.146;17.072;2023-09-19T14:54:36;1.50;;;0.90;;
77152;SDS011;66124;51.146;17.072;2023-09-19T15:08:17;1.40;;;0.90;;
77152;SDS011;66124;51.146;17.072;2023-09-19T15:10:50;1.90;;;0.90;;
77152;SDS011;66124;51.146;17.072;2023-09-19T15:13:22;1.20;;;0.90;;
77152;SDS011;66124;51.146;17.072;2023-09-19T15:15:51;1.40;;;0.90;;
77152;SDS011;66124;51.146;17.072;2023-09-19T15:18:21;1.40;;;1.00;;
77152;SDS011;66124;51.146;17.072;2023-09-19T15:20:50;1.00;;;0.70;;
77152;SDS011;66124;51.146;17.072;2023-09-19T15:23:20;1.00;;;0.80;;
77152;SDS011;66124;51.146;17.072;2023-09-19T15:25:49;1.30;;;0.80;;
77152;SDS011;66124;51.146;17.072;2023-09-19T15:28:19;0.90;;;0.80;;
77152;SDS011;66124;51.146;17.072;2023-09-19T15:30:48;0.70;;;0.60;;
77152;SDS011;66124;51.146;17.072;2023-09-19T15:33:18;1.90;;;0.80;;
77152;SDS011;66124;51.146;17.072;2023-09-19T15:35:47;1.60;;;0.70;;
77152;SDS011;66124;51.146;17.072;2023-09-19T15:38:16;1.70;;;0.70;;
77152;SDS011;66124;51.146;17.072;2023-09-19T15:40:49;1.40;;;0.60;;
77152;SDS011;66124;51.146;17.072;2023-09-19T15:43:18;1.00;;;0.90;;
77152;SDS011;66124;51.146;17.072;2023-09-19T15:45:48;1.40;;;0.70;;
77152;SDS011;66124;51.146;17.072;2023-09-19T15:48:18;1.60;;;0.80;;
77152;SDS011;66124;51.146;17.072;2023-09-19T15:50:47;1.10;;;0.70;;
77152;SDS011;66124;51.146;17.072;2023-09-19T15:53:17;1.40;;;0.70;;
77152;SDS011;66124;51.146;17.072;2023-09-19T15:55:47;1.30;;;0.60;;
77152;SDS011;66124;51.146;17.072;2023-09-19T15:58:16;1.40;;;0.60;;
77152;SDS011;66124;51.146;17.072;2023-09-19T16:00:45;1.00;;;0.70;;
77152;SDS011;66124;51.146;17.072;2023-09-19T16:03:15;1.20;;;0.70;;
77152;SDS011;66124;51.146;17.072;2023-09-19T16:05:44;0.70;;;0.60;;
77152;SDS011;66124;51.146;17.072;2023-09-19T16:08:14;0.60;;;0.60;;
77152;SDS011;66124;51.146;17.072;2023-09-19T16:10:43;1.60;;;0.60;;
77152;SDS011;66124;51.146;17.072;2023-09-19T16:13:15;1.30;;;0.90;;
77152;SDS011;66124;51.146;17.072;2023-09-19T16:15:44;3.50;;;0.70;;
77152;SDS011;66124;51.146;17.072;2023-09-19T16:28:53;2.10;;;1.00;;
77152;SDS011;66124;51.146;17.072;2023-09-19T16:31:24;1.10;;;0.60;;
77152;SDS011;66124;51.146;17.072;2023-09-19T16:33:54;1.00;;;0.80;;
77152;SDS011;66124;51.146;17.072;2023-09-19T16:36:23;1.80;;;0.90;;
77152;SDS011;66124;51.146;17.072;2023-09-19T16:38:53;1.40;;;0.80;;
77152;SDS011;66124;51.146;17.072;2023-09-19T16:41:22;1.20;;;0.70;;
77152;SDS011;66124;51.146;17.072;2023-09-19T16:43:52;2.10;;;0.90;;
77152;SDS011;66124;51.146;17.072;2023-09-19T16:46:21;2.30;;;1.30;;
77152;SDS011;66124;51.146;17.072;2023-09-19T16:48:51;2.20;;;1.10;;
77152;SDS011;66124;51.146;17.072;2023-09-19T16:51:20;1.70;;;1.00;;
77152;SDS011;66124;51.146;17.072;2023-09-19T16:53:50;1.60;;;0.90;;
77152;SDS011;66124;51.146;17.072;2023-09-19T16:56:19;1.00;;;0.80;;
77152;SDS011;66124;51.146;17.072;2023-09-19T16:58:49;1.40;;;0.90;;
77152;SDS011;66124;51.146;17.072;2023-09-19T17:01:19;1.20;;;0.60;;
77152;SDS011;66124;51.146;17.072;2023-09-19T17:03:48;1.60;;;0.70;;
77152;SDS011;66124;51.146;17.072;2023-09-19T17:06:18;1.50;;;0.80;;
77152;SDS011;66124;51.146;17.072;2023-09-19T17:08:49;2.90;;;1.10;;
77152;SDS011;66124;51.146;17.072;2023-09-19T17:11:19;2.20;;;1.00;;
77152;SDS011;66124;51.146;17.072;2023-09-19T17:13:49;3.60;;;1.10;;
77152;SDS011;66124;51.146;17.072;2023-09-19T17:16:19;2.30;;;1.10;;
77152;SDS011;66124;51.146;17.072;2023-09-19T17:18:51;2.20;;;1.20;;
77152;SDS011;66124;51.146;17.072;2023-09-19T17:21:21;2.10;;;1.00;;
77152;SDS011;66124;51.146;17.072;2023-09-19T17:23:51;2.40;;;1.40;;
77152;SDS011;66124;51.146;17.072;2023-09-19T17:26:21;2.40;;;1.10;;